• Join FlightAware (Why Join?)
  • Login
  • US Flag 
04:15PM EDT


 

Airport Tracker/Info


-or-


 

Live Flight TrackerFlight Track Log ✈ TAM3273 ✈ 14-Jul-2013 ✈ SBUL / UDI - SBSP / CGH

Flight Track Log - Related Links

Times and Time Zones

All times are in EDT time to prevent confusion due to time zone crossing. See the TAM3273 flight status page for this flight to view local times or setup timezone preferences in your user account.

Time Position Orientation Groundspeed Altitude Reporting Facility
EDT Latitude Longitude Course Direction KTS MPH feet Rate Location/Type
07:42AM -18.9450 -48.1860 177° South 235 270 8,300  Level FlightAware
07:42AM -18.9740 -48.1850 178° South 242 278 9,600 2,160 Climbing FlightAware
07:43AM -19.0320 -48.1840 179° South 307 353 10,900 1,560 Climbing FlightAware
07:44AM -19.0890 -48.1830 179° South 353 406 11,800 1,740 Climbing FlightAware
07:44AM -19.1540 -48.1820 179° South 378 435 13,100 2,220 Climbing FlightAware
07:44AM -19.1700 -48.1820 180° South 379 436 13,600 2,580 Climbing FlightAware
07:46AM -19.2910 -48.1800 179° South 394 453 16,500 2,400 Climbing FlightAware
07:46AM -19.3630 -48.1790 179° South 403 464 17,900 2,100 Climbing FlightAware
07:47AM -19.4220 -48.1780 179° South 410 472 19,000 2,280 Climbing FlightAware
07:47AM -19.5030 -48.1760 179° South 414 476 20,700 2,220 Climbing FlightAware
07:48AM -19.5850 -48.1750 179° South 417 480 22,200 1,860 Climbing FlightAware
07:49AM -19.6700 -48.1740 179° South 427 491 23,400 1,800 Climbing FlightAware
07:50AM -19.7500 -48.1720 179° South 428 493 24,700 1,980 Climbing FlightAware
07:50AM -19.8220 -48.1710 179° South 427 491 26,000 1,920 Climbing FlightAware
07:51AM -19.9170 -48.1700 179° South 428 493 27,500 1,860 Climbing FlightAware
07:52AM -19.9960 -48.1680 179° South 427 491 28,800 1,740 Climbing FlightAware
07:52AM -20.0820 -48.1670 179° South 426 490 29,900 780 Climbing FlightAware
07:53AM -20.1650 -48.1660 179° South 422 486 30,000 60 Climbing FlightAware
07:54AM -20.2440 -48.1640 179° South 427 491 30,000  Level FlightAware
07:54AM -20.3350 -48.1630 179° South 437 503 30,000  Level FlightAware
07:55AM -20.4200 -48.1620 179° South 466 536 30,000  Level FlightAware
07:56AM -20.5190 -48.1600 179° South 487 560 30,000  Level FlightAware
07:57AM -20.6090 -48.1590 179° South 489 563 30,000  Level FlightAware
07:57AM -20.7030 -48.1570 179° South 487 560 30,000  Level FlightAware
07:58AM -20.7810 -48.1560 179° South 484 557 30,000  Level FlightAware
07:59AM -20.8690 -48.1540 179° South 483 556 30,000  Level FlightAware
07:59AM -20.9690 -48.1530 179° South 484 557 30,000  Level FlightAware
07:59AM -20.9870 -48.1530 180° South 484 557 30,000  Level FlightAware
08:00AM -21.1340 -48.1500 179° South 486 559 30,000  Level FlightAware
08:01AM -21.2410 -48.1480 179° South 487 560 30,000  Level FlightAware
08:02AM -21.3320 -48.1470 179° South 487 560 30,000  Level FlightAware
08:03AM -21.4270 -48.1450 179° South 487 560 30,000  Level FlightAware
08:03AM -21.5270 -48.1440 179° South 487 560 30,000  Level FlightAware
08:04AM -21.6170 -48.1420 179° South 488 562 30,000  Level FlightAware
08:05AM -21.6990 -48.1410 179° South 488 562 30,000  Level FlightAware
08:05AM -21.8080 -48.1350 177° South 497 572 30,000  Level FlightAware
08:06AM -21.8940 -48.0970 158° South 510 587 30,000  Level FlightAware
08:07AM -21.9860 -48.0470 153° Southeast 508 585 30,000  Level FlightAware
08:08AM -22.0790 -47.9980 154° Southeast 507 583 30,000  Level FlightAware
08:08AM -22.1640 -47.9530 154° Southeast 508 585 30,000  Level FlightAware
08:09AM -22.2560 -47.9040 154° Southeast 510 587 30,000  Level FlightAware
08:10AM -22.3430 -47.8580 154° Southeast 511 588 30,000 -360 Level FlightAware
08:10AM -22.4370 -47.8080 154° Southeast 510 587 29,500 -660 Descending FlightAware
08:11AM -22.4830 -47.7830 153° Southeast 512 589 29,000 -3,000 Descending FlightAware
08:12AM -22.6260 -47.7070 154° Southeast 513 590 25,100 -4,440 Descending FlightAware
08:13AM -22.7120 -47.6460 147° Southeast 507 583 22,700 -3,180 Descending FlightAware
08:13AM -22.7810 -47.5810 139° Southeast 495 570 20,700 -2,640 Descending FlightAware
08:14AM -22.8450 -47.5220 140° Southeast 498 573 19,400 -2,580 Descending FlightAware
08:15AM -22.9410 -47.4330 140° Southeast 477 549 16,800 -2,340 Descending FlightAware
08:15AM -23.0020 -47.3750 139° Southeast 425 489 15,700 -1,440 Descending FlightAware
08:16AM -23.0660 -47.3160 140° Southeast 354 407 14,800 -1,500 Descending FlightAware
08:17AM -23.1130 -47.2730 140° Southeast 324 373 13,600 -1,920 Descending FlightAware
08:18AM -23.1540 -47.2350 140° Southeast 311 358 12,300 -1,560 Descending FlightAware
08:18AM -23.2070 -47.1860 140° Southeast 324 373 11,400 -960 Descending FlightAware
08:19AM -23.2530 -47.1430 139° Southeast 321 369 11,000 -600 Descending FlightAware
08:20AM -23.3030 -47.0950 139° Southeast 319 367 10,600 -540 Descending FlightAware
08:20AM -23.3440 -47.0580 140° Southeast 318 366 10,300 -600 Descending FlightAware
08:21AM -23.3760 -47.0270 138° Southeast 316 364 10,000 -600 Descending FlightAware
08:21AM -23.4090 -46.9960 139° Southeast 314 361 9,700 -660 Descending FlightAware
08:22AM -23.4370 -46.9700 140° Southeast 311 358 9,400 -600 Descending FlightAware
08:22AM -23.4700 -46.9390 139° Southeast 311 358 9,200 -600 Descending FlightAware
08:23AM -23.4950 -46.9160 140° Southeast 312 359 8,900 -600 Descending FlightAware
08:23AM -23.5350 -46.8780 139° Southeast 300 345 8,600 -540 Descending FlightAware
08:24AM -23.5600 -46.8540 139° Southeast 291 335 8,400 -540 Descending FlightAware
08:24AM -23.6000 -46.8150 138° Southeast 261 300 8,000 -360 Descending FlightAware
08:25AM -23.6250 -46.7910 139° Southeast 260 299 8,000 -120 Level FlightAware
08:25AM -23.6500 -46.7650 136° Southeast 261 300 7,900 -240 Descending FlightAware
08:26AM -23.6710 -46.7450 139° Southeast 258 297 7,800 -300 Descending FlightAware
08:26AM -23.6920 -46.7240 138° Southeast 251 289 7,700 -240 Descending FlightAware
08:27AM -23.7160 -46.6990 136° Southeast 242 278 7,600 -540 Descending FlightAware
08:27AM -23.7400 -46.6760 139° Southeast 240 276 7,200 -900 Descending FlightAware
08:27AM -23.7620 -46.6550 139° Southeast 238 274 6,800 -900 Descending FlightAware
08:28AM -23.7730 -46.6440 138° Southeast 236 272 6,600 -1,020 Descending FlightAware
08:28AM -23.7890 -46.6260 134° Southeast 236 272 6,200 -1,020 Descending FlightAware
08:28AM -23.7930 -46.6100 105° East 231 266 6,000 -840 Descending FlightAware
08:29AM -23.7820 -46.5860 63° Northeast 217 250 5,700 -840 Descending FlightAware
08:29AM -23.7700 -46.5700 51° Northeast 204 235 5,400 -1,020 Descending FlightAware
08:29AM -23.7620 -46.5670 19° North 194 223 5,200 -720 Descending FlightAware
08:30AM -23.7460 -46.5740 338° Northwest 174 200 5,000 -780 Descending FlightAware
08:30AM -23.7270 -46.5870 328° Northwest 158 182 4,500 -900 Descending FlightAware
08:31AM -23.7090 -46.6000 327° Northwest 138 159 4,100 -660 Descending FlightAware
08:31AM -23.7010 -46.6050 330° Northwest 125 144 4,000 -660 Descending FlightAware
08:31AM -23.6900 -46.6130 326° Northwest 127 146 3,700 -900 Descending FlightAware
08:32AM -23.6700 -46.6260 329° Northwest 127 146 3,200 -840 Descending FlightAware
08:32AM -23.6570 -46.6350 328° Northwest 129 148 2,900 -480 Descending FlightAware
08:33AM -23.6520 -46.6390 324° Northwest 129 148 2,800 -540 Descending FlightAware
08:33AM -23.6390 -46.6480 328° Northwest 132 152 2,500 -780 Descending FlightAware
08:33AM -23.6290 -46.6550 327° Northwest 132 152 -9,420 Descending FlightAware
08:34AM -23.6230 -46.6590 329° Northwest 132 152  Level FlightAware
08:34AM -23.6220 -46.6600 318° Northwest 132 152  Level FlightAware
08:35AM -23.6140 -46.6480 54° Northeast 132 152  Level FlightAware
08:36AM -23.6180 -46.6450 146° Southeast 132 152  Level FlightAware
08:37AM -23.6290 -46.6410 162° South 132 152  Level FlightAware
08:37AM -23.6310 -46.6570 262° West 132 152  Level FlightAware
08:38AM -23.6220 -46.6450 51° Northeast 132 152  Level FlightAware
08:39AM -23.6310 -46.6570 231° Southwest 132 152  Level FlightAware
08:40AM -23.6230 -46.6460 52° Northeast 132 152  Level FlightAware
08:42AM -23.6267 -46.6554 247° West  Level Estimated
08:43AM -23.6267 -46.6554 114° Southeast  Level Estimated
08:44AM -23.6267 -46.6554 114° Southeast  Level Estimated
08:45AM -23.6267 -46.6554 114° Southeast  Level Estimated